createdAt,value
2018-07-17T00:00:02.011Z,0.00
2018-07-17T00:01:01.999Z,0.00
2018-07-17T00:02:01.978Z,0.00
2018-07-17T00:03:01.960Z,0.00
2018-07-17T00:04:01.944Z,0.00
2018-07-17T00:05:01.928Z,0.00
2018-07-17T00:06:01.925Z,0.00
2018-07-17T00:07:01.900Z,0.00
2018-07-17T00:08:01.882Z,0.00
2018-07-17T00:09:01.867Z,0.00
2018-07-17T00:10:01.850Z,0.00
2018-07-17T00:11:01.835Z,0.00
2018-07-17T00:12:01.828Z,0.00
2018-07-17T00:13:01.803Z,0.00
2018-07-17T00:14:01.789Z,0.00
2018-07-17T00:15:01.772Z,0.00
2018-07-17T00:16:01.756Z,0.00
2018-07-17T00:17:01.760Z,0.00
2018-07-17T00:18:01.725Z,0.00
2018-07-17T00:19:01.711Z,0.00
2018-07-17T00:20:01.695Z,0.00
2018-07-17T00:21:01.678Z,0.00
2018-07-17T00:22:01.667Z,0.00
2018-07-17T00:23:01.655Z,0.00
2018-07-17T00:24:01.631Z,0.00
2018-07-17T00:25:01.616Z,0.00
2018-07-17T00:26:01.601Z,0.00
2018-07-17T00:27:01.586Z,0.00
2018-07-17T00:28:01.579Z,0.00
2018-07-17T00:29:01.555Z,0.00
2018-07-17T00:30:01.536Z,0.00
2018-07-17T00:31:01.522Z,0.00
2018-07-17T00:32:01.510Z,0.00
2018-07-17T00:33:01.499Z,0.00
2018-07-17T00:34:01.479Z,0.00
2018-07-17T00:35:01.460Z,0.00
2018-07-17T00:36:01.444Z,0.00
2018-07-17T00:37:01.428Z,0.00
2018-07-17T00:38:01.425Z,0.00
2018-07-17T00:39:01.395Z,0.00
2018-07-17T00:40:01.378Z,0.00
2018-07-17T00:41:01.366Z,0.00
2018-07-17T00:42:01.347Z,0.00
2018-07-17T00:43:01.332Z,0.00
2018-07-17T00:44:01.328Z,0.00
2018-07-17T00:45:01.298Z,0.00
2018-07-17T00:46:01.284Z,0.00
2018-07-17T00:47:01.269Z,0.00
2018-07-17T00:48:01.268Z,0.00
2018-07-17T00:49:01.245Z,0.00
2018-07-17T00:50:01.220Z,0.00
2018-07-17T00:51:01.205Z,0.00
2018-07-17T00:52:01.197Z,0.00
2018-07-17T00:53:01.172Z,0.00
2018-07-17T00:54:01.167Z,0.00
2018-07-17T00:55:01.143Z,0.00
2018-07-17T00:56:01.124Z,0.00
2018-07-17T00:57:01.108Z,0.00
2018-07-17T00:58:01.093Z,0.00
2018-07-17T00:59:01.085Z,0.00
2018-07-17T01:00:01.060Z,0.00
2018-07-17T01:01:01.110Z,0.00
2018-07-17T01:02:01.030Z,0.00
2018-07-17T01:03:01.013Z,0.00
2018-07-17T01:04:01.006Z,0.00
2018-07-17T01:05:00.981Z,0.00
2018-07-17T01:06:00.964Z,0.00
2018-07-17T01:07:00.964Z,0.00
2018-07-17T01:08:00.932Z,0.00
2018-07-17T01:09:00.948Z,0.00
2018-07-17T01:10:00.900Z,0.00
2018-07-17T01:11:00.886Z,0.00
2018-07-17T01:12:00.870Z,0.00
2018-07-17T01:13:00.854Z,0.00
2018-07-17T01:14:00.836Z,0.00
2018-07-17T01:15:00.830Z,0.00
2018-07-17T01:16:00.803Z,0.00
2018-07-17T01:17:00.787Z,0.00
2018-07-17T01:18:00.773Z,0.00
2018-07-17T01:19:00.755Z,0.00
2018-07-17T01:20:00.748Z,0.00
2018-07-17T01:21:00.723Z,0.00
2018-07-17T01:22:00.706Z,0.00
2018-07-17T01:23:00.693Z,0.00
2018-07-17T01:24:00.675Z,0.00
2018-07-17T01:25:01.132Z,0.00
2018-07-17T01:26:00.653Z,0.00
2018-07-17T01:27:00.626Z,0.00
2018-07-17T01:28:00.611Z,0.00
2018-07-17T01:29:00.594Z,0.00
2018-07-17T01:30:00.589Z,0.00
2018-07-17T01:31:00.562Z,0.00
2018-07-17T01:32:00.548Z,0.00
2018-07-17T01:33:00.529Z,0.00
2018-07-17T01:34:00.512Z,0.00
2018-07-17T01:35:00.497Z,0.00
2018-07-17T01:36:00.488Z,0.00
2018-07-17T01:37:00.465Z,0.00
2018-07-17T01:38:00.447Z,0.00
2018-07-17T01:39:00.430Z,0.00
2018-07-17T01:40:00.415Z,0.00
2018-07-17T01:41:00.409Z,0.00
2018-07-17T01:42:00.382Z,0.00
2018-07-17T01:43:00.381Z,0.00
2018-07-17T01:44:00.352Z,0.00
2018-07-17T01:45:00.333Z,0.00
2018-07-17T01:46:00.325Z,0.00
2018-07-17T01:47:00.303Z,0.00
2018-07-17T01:48:00.282Z,0.00
2018-07-17T01:49:00.266Z,0.00
2018-07-17T01:50:00.252Z,0.00
2018-07-17T01:51:00.248Z,0.00
2018-07-17T01:52:00.222Z,0.00
2018-07-17T01:53:00.200Z,0.00
2018-07-17T01:54:00.184Z,0.00
2018-07-17T01:55:00.167Z,0.00
2018-07-17T01:56:00.151Z,0.00
2018-07-17T01:57:00.143Z,0.00
2018-07-17T01:58:00.119Z,0.00
2018-07-17T01:59:00.102Z,0.00
2018-07-17T02:00:00.090Z,0.00
2018-07-17T02:01:00.073Z,0.00
2018-07-17T02:02:00.062Z,0.00
2018-07-17T02:03:00.035Z,0.00
2018-07-17T02:04:00.020Z,0.00
2018-07-17T02:05:00.103Z,0.00
2018-07-17T02:05:59.986Z,0.00
2018-07-17T02:06:59.979Z,0.00
2018-07-17T02:07:59.954Z,0.00
2018-07-17T02:08:59.935Z,0.00
2018-07-17T02:09:59.920Z,0.00
2018-07-17T02:10:59.902Z,0.00
2018-07-17T02:11:59.895Z,0.00
2018-07-17T02:12:59.872Z,0.00
2018-07-17T02:13:59.851Z,0.00
2018-07-17T02:14:59.835Z,0.00
2018-07-17T02:15:59.818Z,0.00
2018-07-17T02:16:59.811Z,0.00
2018-07-17T02:17:59.785Z,0.00
2018-07-17T02:18:59.769Z,0.00
2018-07-17T02:19:59.752Z,0.00
2018-07-17T02:20:59.735Z,0.00
2018-07-17T02:21:59.728Z,0.00
2018-07-17T02:22:59.702Z,0.00
2018-07-17T02:23:59.685Z,0.00
2018-07-17T02:24:59.669Z,0.00
2018-07-17T02:25:59.690Z,0.00
2018-07-17T02:26:59.646Z,0.00
2018-07-17T02:27:59.617Z,0.00
2018-07-17T02:28:59.602Z,0.00
2018-07-17T02:29:59.589Z,0.00
2018-07-17T02:30:59.567Z,0.00
2018-07-17T02:31:59.559Z,0.00
2018-07-17T02:32:59.536Z,0.00
2018-07-17T02:33:59.546Z,0.00
2018-07-17T02:34:59.512Z,0.00
2018-07-17T02:35:59.484Z,0.00
2018-07-17T02:36:59.467Z,0.00
2018-07-17T02:37:59.452Z,0.00
2018-07-17T02:38:59.434Z,0.00
2018-07-17T02:39:59.436Z,0.00
2018-07-17T02:40:59.401Z,0.00
2018-07-17T02:41:59.385Z,0.00
2018-07-17T02:42:59.368Z,0.00
2018-07-17T02:43:59.349Z,0.00
2018-07-17T02:44:59.333Z,0.00
2018-07-17T02:45:59.327Z,0.00
2018-07-17T02:46:59.301Z,0.00
2018-07-17T02:47:59.282Z,0.00
2018-07-17T02:48:59.265Z,0.00
2018-07-17T02:49:59.250Z,0.00
2018-07-17T02:50:59.242Z,0.00
2018-07-17T02:51:59.214Z,0.00
2018-07-17T02:52:59.199Z,0.00
2018-07-17T02:53:59.182Z,0.00
2018-07-17T02:54:59.178Z,0.00
2018-07-17T02:55:59.176Z,0.00
2018-07-17T02:56:59.129Z,0.00
2018-07-17T02:57:59.114Z,0.00
2018-07-17T02:58:59.100Z,4.00
2018-07-17T02:59:59.081Z,4.00
2018-07-17T03:00:59.064Z,4.00
2018-07-17T03:01:59.057Z,4.00
2018-07-17T03:02:59.029Z,0.00
2018-07-17T03:03:59.013Z,4.00
2018-07-17T03:04:58.998Z,4.00
2018-07-17T03:05:58.977Z,8.00
2018-07-17T03:06:58.997Z,4.00
2018-07-17T03:07:58.950Z,8.00
2018-07-17T03:08:58.928Z,8.00
2018-07-17T03:09:58.910Z,12.00
2018-07-17T03:10:58.892Z,12.00
2018-07-17T03:11:58.897Z,12.00
2018-07-17T03:12:58.859Z,12.00
2018-07-17T03:13:58.857Z,16.00
2018-07-17T03:14:58.826Z,20.00
2018-07-17T03:15:58.808Z,24.00
2018-07-17T03:16:58.792Z,28.00
2018-07-17T03:17:58.785Z,28.00
2018-07-17T03:18:58.757Z,32.00
2018-07-17T03:19:58.739Z,36.00
2018-07-17T03:20:58.723Z,40.00
2018-07-17T03:21:58.706Z,44.00
2018-07-17T03:22:58.699Z,52.00
2018-07-17T03:23:58.671Z,56.00
2018-07-17T03:24:58.655Z,60.00
2018-07-17T03:25:58.638Z,68.00
2018-07-17T03:26:58.620Z,76.00
2018-07-17T03:27:58.630Z,84.00
2018-07-17T03:28:58.588Z,92.00
2018-07-17T03:29:58.570Z,100.00
2018-07-17T03:30:58.555Z,112.00
2018-07-17T03:31:58.536Z,120.00
2018-07-17T03:32:58.520Z,132.00
2018-07-17T03:33:58.511Z,144.00
2018-07-17T03:34:58.486Z,152.00
2018-07-17T03:35:58.467Z,172.00
2018-07-17T03:36:58.455Z,180.00
2018-07-17T03:37:58.433Z,200.00
2018-07-17T03:38:58.427Z,216.00
2018-07-17T03:39:58.398Z,232.00
2018-07-17T03:40:58.382Z,248.00
2018-07-17T03:41:58.365Z,264.00
2018-07-17T03:42:58.349Z,280.00
2018-07-17T03:43:58.356Z,296.00
2018-07-17T03:44:58.314Z,312.00
2018-07-17T03:45:58.297Z,332.00
2018-07-17T03:46:58.281Z,364.00
2018-07-17T03:47:58.262Z,396.00
2018-07-17T03:48:58.245Z,436.00
2018-07-17T03:49:58.240Z,472.00
2018-07-17T03:50:58.212Z,508.00
2018-07-17T03:51:58.194Z,544.00
2018-07-17T03:52:58.177Z,580.00
2018-07-17T03:53:58.163Z,620.00
2018-07-17T03:54:58.154Z,668.00
2018-07-17T03:55:58.127Z,720.00
2018-07-17T03:56:58.110Z,764.00
2018-07-17T03:57:58.094Z,792.00
2018-07-17T03:58:58.079Z,820.00
2018-07-17T03:59:58.081Z,856.00
2018-07-17T04:00:58.041Z,900.00
2018-07-17T04:01:58.031Z,956.00
2018-07-17T04:02:58.051Z,1024.00
2018-07-17T04:03:57.995Z,1100.00
2018-07-17T04:04:57.974Z,1164.00
2018-07-17T04:05:57.968Z,1220.00
2018-07-17T04:06:57.944Z,1260.00
2018-07-17T04:07:57.925Z,1296.00
2018-07-17T04:08:57.907Z,1344.00
2018-07-17T04:09:57.890Z,1380.00
2018-07-17T04:10:57.884Z,1412.00
2018-07-17T04:11:57.855Z,1444.00
2018-07-17T04:12:57.839Z,1484.00
2018-07-17T04:13:57.825Z,1524.00
2018-07-17T04:14:57.807Z,1564.00
2018-07-17T04:15:57.799Z,1604.00
2018-07-17T04:16:57.772Z,1652.00
2018-07-17T04:17:57.756Z,1712.00
2018-07-17T04:18:57.739Z,1784.00
2018-07-17T04:19:57.721Z,1852.00
2018-07-17T04:20:57.720Z,1912.00
2018-07-17T04:21:57.689Z,1972.00
2018-07-17T04:22:57.672Z,2036.00
2018-07-17T04:23:57.658Z,2092.00
2018-07-17T04:24:57.637Z,2132.00
2018-07-17T04:25:57.620Z,2164.00
2018-07-17T04:26:57.614Z,2200.00
2018-07-17T04:27:57.584Z,2248.00
2018-07-17T04:28:57.569Z,2296.00
2018-07-17T04:29:57.555Z,2356.00
2018-07-17T04:30:57.535Z,2408.00
2018-07-17T04:31:57.530Z,2480.00
2018-07-17T04:32:57.502Z,2544.00
2018-07-17T04:33:57.486Z,2568.00
2018-07-17T04:34:57.473Z,2544.00
2018-07-17T04:35:57.452Z,2488.00
2018-07-17T04:36:57.451Z,2428.00
2018-07-17T04:37:57.418Z,2384.00
2018-07-17T04:38:57.402Z,2368.00
2018-07-17T04:39:57.384Z,2376.00
2018-07-17T04:40:57.368Z,2400.00
2018-07-17T04:41:57.355Z,2432.00
2018-07-17T04:42:57.348Z,2468.00
2018-07-17T04:43:57.319Z,2504.00
2018-07-17T04:44:57.303Z,2536.00
2018-07-17T04:45:57.285Z,2564.00
2018-07-17T04:46:57.269Z,2588.00
2018-07-17T04:47:57.264Z,2616.00
2018-07-17T04:48:57.235Z,2656.00
2018-07-17T04:49:57.217Z,2692.00
2018-07-17T04:50:57.223Z,2740.00
2018-07-17T04:51:57.186Z,2788.00
2018-07-17T04:52:57.185Z,2832.00
2018-07-17T04:53:57.218Z,2872.00
2018-07-17T04:54:57.139Z,2912.00
2018-07-17T04:55:57.118Z,2964.00
2018-07-17T04:56:57.102Z,3016.00
2018-07-17T04:57:57.087Z,3072.00
2018-07-17T04:58:57.080Z,3132.00
2018-07-17T04:59:57.052Z,3188.00
2018-07-17T05:00:57.036Z,3244.00
2018-07-17T05:01:57.075Z,3308.00
2018-07-17T05:02:57.002Z,3368.00
2018-07-17T05:03:56.996Z,3432.00
2018-07-17T05:04:56.970Z,3484.00
2018-07-17T05:05:56.953Z,3536.00
2018-07-17T05:06:56.936Z,3588.00
2018-07-17T05:07:56.923Z,3640.00
2018-07-17T05:08:56.917Z,3684.00
2018-07-17T05:09:56.885Z,3712.00
2018-07-17T05:10:56.874Z,3732.00
2018-07-17T05:11:56.854Z,3748.00
2018-07-17T05:12:56.871Z,3772.00
2018-07-17T05:13:56.820Z,3792.00
2018-07-17T05:14:56.813Z,3796.00
2018-07-17T05:15:56.786Z,3804.00
2018-07-17T05:16:56.771Z,3816.00
2018-07-17T05:17:56.753Z,3804.00
2018-07-17T05:18:56.737Z,3776.00
2018-07-17T05:19:56.731Z,3724.00
2018-07-17T05:20:56.704Z,3728.00
2018-07-17T05:21:56.688Z,3720.00
2018-07-17T05:22:56.755Z,3740.00
2018-07-17T05:23:56.673Z,3812.00
2018-07-17T05:24:56.654Z,3876.00
2018-07-17T05:25:56.620Z,3940.00
2018-07-17T05:26:56.606Z,4016.00
2018-07-17T05:27:56.592Z,4100.00
2018-07-17T05:28:56.644Z,4180.00
2018-07-17T05:29:56.564Z,4232.00
2018-07-17T05:30:56.554Z,4236.00
2018-07-17T05:31:56.525Z,4208.00
2018-07-17T05:32:56.507Z,4188.00
2018-07-17T05:33:56.491Z,4172.00
2018-07-17T05:34:56.474Z,4172.00
2018-07-17T05:35:56.471Z,4172.00
2018-07-17T05:36:56.442Z,4192.00
2018-07-17T05:37:56.426Z,4224.00
2018-07-17T05:38:56.411Z,4260.00
2018-07-17T05:39:56.399Z,4292.00
2018-07-17T05:40:56.392Z,4300.00
2018-07-17T05:41:56.363Z,4292.00
2018-07-17T05:42:56.347Z,4312.00
2018-07-17T05:43:56.330Z,4324.00
2018-07-17T05:44:56.313Z,4420.00
2018-07-17T05:45:56.298Z,4428.00
2018-07-17T05:46:56.294Z,4380.00
2018-07-17T05:47:56.265Z,4332.00
2018-07-17T05:48:56.250Z,4336.00
2018-07-17T05:49:56.238Z,4368.00
2018-07-17T05:50:56.218Z,4316.00
2018-07-17T05:51:56.253Z,4204.00
2018-07-17T05:52:56.188Z,4184.00
2018-07-17T05:53:56.170Z,4068.00
2018-07-17T05:54:56.154Z,4048.00
2018-07-17T05:55:56.138Z,3960.00
2018-07-17T05:56:56.139Z,3976.00
2018-07-17T05:57:56.108Z,4024.00
2018-07-17T05:58:56.090Z,3788.00
2018-07-17T05:59:56.075Z,3764.00
2018-07-17T06:00:56.061Z,3868.00
2018-07-17T06:01:56.047Z,3988.00
2018-07-17T06:02:56.039Z,3940.00
2018-07-17T06:03:56.014Z,3924.00
2018-07-17T06:04:56.000Z,3868.00
2018-07-17T06:05:55.987Z,3868.00
2018-07-17T06:06:55.968Z,3920.00
2018-07-17T06:07:55.962Z,4012.00
2018-07-17T06:08:55.937Z,3920.00
2018-07-17T06:09:55.921Z,4076.00
2018-07-17T06:10:55.907Z,4016.00
2018-07-17T06:11:55.890Z,3968.00
2018-07-17T06:12:55.892Z,4016.00
2018-07-17T06:13:55.862Z,4072.00
2018-07-17T06:14:55.848Z,4116.00
2018-07-17T06:15:55.830Z,4120.00
2018-07-17T06:16:55.821Z,4148.00
2018-07-17T06:17:55.802Z,4292.00
2018-07-17T06:18:55.853Z,4344.00
2018-07-17T06:19:55.773Z,4356.00
2018-07-17T06:20:55.758Z,4688.00
2018-07-17T06:21:55.740Z,4724.00
2018-07-17T06:22:55.727Z,4728.00
2018-07-17T06:23:55.719Z,4728.00
2018-07-17T06:24:55.728Z,4716.00
2018-07-17T06:25:55.696Z,4720.00
2018-07-17T06:26:55.665Z,4728.00
2018-07-17T06:27:55.650Z,4724.00
2018-07-17T06:28:55.648Z,4736.00
2018-07-17T06:29:55.623Z,4752.00
2018-07-17T06:30:55.606Z,4760.00
2018-07-17T06:31:55.591Z,4772.00
2018-07-17T06:32:55.610Z,4784.00
2018-07-17T06:33:55.564Z,4796.00
2018-07-17T06:34:55.560Z,4808.00
2018-07-17T06:35:55.532Z,4836.00
2018-07-17T06:36:55.522Z,4860.00
2018-07-17T06:37:55.513Z,4880.00
2018-07-17T06:38:55.564Z,4892.00
2018-07-17T06:39:55.488Z,4900.00
2018-07-17T06:40:55.462Z,4924.00
2018-07-17T06:41:55.449Z,4956.00
2018-07-17T06:42:55.434Z,4980.00
2018-07-17T06:43:55.438Z,5004.00
2018-07-17T06:44:55.426Z,5032.00
2018-07-17T06:45:55.393Z,5064.00
2018-07-17T06:46:55.377Z,5096.00
2018-07-17T06:47:55.367Z,5148.00
2018-07-17T06:48:55.353Z,5208.00
2018-07-17T06:49:55.342Z,5288.00
2018-07-17T06:50:55.344Z,5388.00
2018-07-17T06:51:55.313Z,5504.00
2018-07-17T06:52:55.300Z,5620.00
2018-07-17T06:53:55.286Z,5720.00
2018-07-17T06:54:55.273Z,5808.00
2018-07-17T06:55:55.271Z,5940.00
2018-07-17T06:56:55.253Z,6156.00
2018-07-17T06:57:55.235Z,6300.00
2018-07-17T06:58:55.221Z,6424.00
2018-07-17T06:59:55.206Z,6516.00
2018-07-17T07:00:55.206Z,6544.00
2018-07-17T07:01:55.180Z,6496.00
2018-07-17T07:02:55.169Z,6400.00
2018-07-17T07:03:55.154Z,6304.00
2018-07-17T07:04:55.143Z,6252.00
2018-07-17T07:05:55.146Z,6244.00
2018-07-17T07:06:55.117Z,6292.00
2018-07-17T07:07:55.104Z,6368.00
2018-07-17T07:08:55.092Z,6456.00
2018-07-17T07:09:55.078Z,6532.00
2018-07-17T07:10:55.066Z,6608.00
2018-07-17T07:11:55.065Z,6644.00
2018-07-17T07:12:55.044Z,6628.00
2018-07-17T07:13:55.029Z,6600.00
2018-07-17T07:14:55.016Z,6556.00
2018-07-17T07:15:54.996Z,6476.00
2018-07-17T07:16:54.999Z,6400.00
2018-07-17T07:17:54.999Z,6336.00
2018-07-17T07:18:54.966Z,6272.00
2018-07-17T07:19:54.953Z,6228.00
2018-07-17T07:20:54.940Z,6176.00
2018-07-17T07:21:54.944Z,6164.00
2018-07-17T07:22:54.916Z,6156.00
2018-07-17T07:23:54.904Z,6136.00
2018-07-17T07:24:54.893Z,6128.00
2018-07-17T07:25:54.885Z,5968.00
2018-07-17T07:26:54.868Z,6252.00
2018-07-17T07:27:54.868Z,6312.00
2018-07-17T07:28:54.844Z,6352.00
2018-07-17T07:29:54.832Z,6392.00
2018-07-17T07:30:54.872Z,6428.00
2018-07-17T07:31:54.808Z,6256.00
2018-07-17T07:32:54.807Z,6216.00
2018-07-17T07:33:54.784Z,6316.00
2018-07-17T07:34:54.772Z,6440.00
2018-07-17T07:35:54.759Z,6444.00
2018-07-17T07:36:54.748Z,6548.00
2018-07-17T07:37:54.751Z,6612.00
2018-07-17T07:38:54.723Z,6744.00
2018-07-17T07:39:54.712Z,6864.00
2018-07-17T07:40:54.701Z,6980.00
2018-07-17T07:41:54.686Z,7016.00
2018-07-17T07:42:54.716Z,7244.00
2018-07-17T07:43:54.698Z,7396.00
2018-07-17T07:44:54.653Z,7548.00
2018-07-17T07:45:54.641Z,7748.00
2018-07-17T07:46:54.630Z,7976.00
2018-07-17T07:47:54.616Z,8208.00
2018-07-17T07:48:54.619Z,8492.00
2018-07-17T07:49:54.594Z,8836.00
2018-07-17T07:50:54.582Z,9256.00
2018-07-17T07:51:54.570Z,9724.00
2018-07-17T07:52:54.559Z,10224.00
2018-07-17T07:53:54.580Z,10760.00
2018-07-17T07:54:54.538Z,11312.00
2018-07-17T07:55:54.524Z,11800.00
2018-07-17T07:56:54.516Z,12180.00
2018-07-17T07:57:54.502Z,12540.00
2018-07-17T07:58:54.490Z,12952.00
2018-07-17T07:59:54.487Z,13300.00
2018-07-17T08:00:54.465Z,13612.00
2018-07-17T08:01:54.455Z,13924.00
2018-07-17T08:02:54.443Z,14360.00
2018-07-17T08:03:54.465Z,14652.00
2018-07-17T08:04:54.432Z,14720.00
2018-07-17T08:05:54.410Z,14928.00
2018-07-17T08:06:54.400Z,14944.00
2018-07-17T08:07:54.389Z,14784.00
2018-07-17T08:08:54.379Z,14636.00
2018-07-17T08:09:54.381Z,14548.00
2018-07-17T08:10:54.355Z,14488.00
2018-07-17T08:11:54.400Z,14368.00
2018-07-17T08:12:54.333Z,14260.00
2018-07-17T08:13:54.324Z,14080.00
2018-07-17T08:14:54.312Z,13912.00
2018-07-17T08:15:54.316Z,13800.00
2018-07-17T08:16:54.289Z,13396.00
2018-07-17T08:17:54.277Z,12928.00
2018-07-17T08:18:54.271Z,12392.00
2018-07-17T08:19:54.258Z,11968.00
2018-07-17T08:20:54.257Z,11604.00
2018-07-17T08:21:54.236Z,11252.00
2018-07-17T08:22:54.224Z,10820.00
2018-07-17T08:23:54.215Z,10284.00
2018-07-17T08:24:54.202Z,9688.00
2018-07-17T08:25:54.211Z,9028.00
2018-07-17T08:26:54.182Z,8396.00
2018-07-17T08:27:54.176Z,7844.00
2018-07-17T08:28:54.158Z,7484.00
2018-07-17T08:29:54.148Z,7292.00
2018-07-17T08:30:54.138Z,7120.00
2018-07-17T08:31:54.136Z,7052.00
2018-07-17T08:32:54.115Z,7000.00
2018-07-17T08:33:54.104Z,7056.00
2018-07-17T08:34:54.096Z,7112.00
2018-07-17T08:35:54.199Z,7436.00
2018-07-17T08:36:54.084Z,7280.00
2018-07-17T08:37:54.065Z,7276.00
2018-07-17T08:38:54.049Z,7408.00
2018-07-17T08:39:54.037Z,7364.00
2018-07-17T08:40:54.027Z,7544.00
2018-07-17T08:41:54.034Z,7660.00
2018-07-17T08:42:54.006Z,7744.00
2018-07-17T08:43:53.998Z,7708.00
2018-07-17T08:44:53.983Z,7724.00
2018-07-17T08:45:53.971Z,7828.00
2018-07-17T08:46:53.960Z,7916.00
2018-07-17T08:47:53.960Z,7748.00
2018-07-17T08:48:53.942Z,7832.00
2018-07-17T08:49:53.928Z,8124.00
2018-07-17T08:50:53.916Z,8304.00
2018-07-17T08:51:53.903Z,8716.00
2018-07-17T08:52:53.902Z,9324.00
2018-07-17T08:53:53.881Z,9748.00
2018-07-17T08:54:53.870Z,10312.00
2018-07-17T08:55:53.857Z,11000.00
2018-07-17T08:56:53.847Z,11688.00
2018-07-17T08:57:53.851Z,12072.00
2018-07-17T08:58:53.825Z,12340.00
2018-07-17T08:59:53.812Z,12816.00
2018-07-17T09:00:53.802Z,13276.00
2018-07-17T09:01:53.790Z,13440.00
2018-07-17T09:02:53.779Z,13412.00
2018-07-17T09:03:53.778Z,13040.00
2018-07-17T09:04:53.758Z,12328.00
2018-07-17T09:05:53.776Z,11788.00
2018-07-17T09:06:53.736Z,11172.00
2018-07-17T09:07:53.723Z,10500.00
2018-07-17T09:08:53.727Z,9996.00
2018-07-17T09:09:53.705Z,9472.00
2018-07-17T09:10:53.694Z,9104.00
2018-07-17T09:11:53.681Z,8860.00
2018-07-17T09:12:53.672Z,8544.00
2018-07-17T09:13:53.676Z,8416.00
2018-07-17T09:14:53.654Z,8280.00
2018-07-17T09:15:53.638Z,8172.00
2018-07-17T09:16:53.627Z,8092.00
2018-07-17T09:17:53.617Z,8096.00
2018-07-17T09:18:53.605Z,8076.00
2018-07-17T09:19:53.607Z,7984.00
2018-07-17T09:20:53.584Z,7964.00
2018-07-17T09:21:53.574Z,7984.00
2018-07-17T09:22:53.563Z,8020.00
2018-07-17T09:23:53.551Z,8232.00
2018-07-17T09:24:53.556Z,8532.00
2018-07-17T09:25:53.530Z,8260.00
2018-07-17T09:26:53.519Z,8088.00
2018-07-17T09:27:53.508Z,7888.00
2018-07-17T09:28:53.496Z,7940.00
2018-07-17T09:29:53.499Z,8252.00
2018-07-17T09:30:53.475Z,8252.00
2018-07-17T09:31:53.464Z,8168.00
2018-07-17T09:32:53.460Z,7836.00
2018-07-17T09:33:53.441Z,7528.00
2018-07-17T09:34:53.459Z,7300.00
2018-07-17T09:35:53.419Z,7116.00
2018-07-17T09:36:53.406Z,7040.00
2018-07-17T09:37:53.400Z,6844.00
2018-07-17T09:38:53.406Z,6936.00
2018-07-17T09:39:53.377Z,7072.00
2018-07-17T09:40:53.376Z,7284.00
2018-07-17T09:41:53.365Z,7236.00
2018-07-17T09:42:53.345Z,7344.00
2018-07-17T09:43:53.330Z,7728.00
2018-07-17T09:44:53.321Z,7660.00
2018-07-17T09:45:53.322Z,7832.00
2018-07-17T09:46:53.300Z,7804.00
2018-07-17T09:47:53.294Z,7768.00
2018-07-17T09:48:53.280Z,7752.00
2018-07-17T09:49:53.266Z,7772.00
2018-07-17T09:50:53.275Z,7828.00
2018-07-17T09:51:53.245Z,7880.00
2018-07-17T09:52:53.231Z,7984.00
2018-07-17T09:53:53.220Z,8020.00
2018-07-17T09:54:53.210Z,8004.00
2018-07-17T09:55:53.197Z,7896.00
2018-07-17T09:56:53.200Z,7768.00
2018-07-17T09:57:53.178Z,7736.00
2018-07-17T09:58:53.169Z,7752.00
2018-07-17T09:59:53.160Z,7796.00
2018-07-17T10:00:53.147Z,7908.00
2018-07-17T10:01:53.155Z,8072.00
2018-07-17T10:02:53.124Z,8240.00
2018-07-17T10:03:53.113Z,8452.00
2018-07-17T10:04:53.106Z,8660.00
2018-07-17T10:05:53.093Z,8872.00
2018-07-17T10:06:53.083Z,9220.00
2018-07-17T10:07:53.081Z,9740.00
2018-07-17T10:08:53.062Z,10272.00
2018-07-17T10:09:53.053Z,10740.00
2018-07-17T10:10:53.042Z,11032.00
2018-07-17T10:11:53.033Z,11232.00
2018-07-17T10:12:53.030Z,11392.00
2018-07-17T10:13:53.010Z,11608.00
2018-07-17T10:14:53.005Z,11828.00
2018-07-17T10:15:52.990Z,12048.00
2018-07-17T10:16:52.983Z,12436.00
2018-07-17T10:17:52.988Z,13008.00
2018-07-17T10:18:52.960Z,13772.00
2018-07-17T10:19:52.977Z,14632.00
2018-07-17T10:20:52.939Z,15312.00
2018-07-17T10:21:52.930Z,15784.00
2018-07-17T10:22:52.921Z,16160.00
2018-07-17T10:23:52.921Z,16608.00
2018-07-17T10:24:52.902Z,16992.00
2018-07-17T10:25:52.890Z,17120.00
2018-07-17T10:26:52.881Z,17248.00
2018-07-17T10:27:52.870Z,17280.00
2018-07-17T10:28:52.876Z,17344.00
2018-07-17T10:29:52.853Z,17312.00
2018-07-17T10:30:52.843Z,17248.00
2018-07-17T10:31:52.832Z,17248.00
2018-07-17T10:32:52.826Z,17408.00
2018-07-17T10:33:52.829Z,17696.00
2018-07-17T10:34:52.807Z,18112.00
2018-07-17T10:35:52.798Z,18432.00
2018-07-17T10:36:52.785Z,18656.00
2018-07-17T10:37:52.776Z,19008.00
2018-07-17T10:38:52.787Z,19392.00
2018-07-17T10:39:52.759Z,19712.00
2018-07-17T10:40:52.747Z,19904.00
2018-07-17T10:41:52.736Z,19840.00
2018-07-17T10:42:52.729Z,19872.00
2018-07-17T10:43:52.718Z,19936.00
2018-07-17T10:44:52.721Z,20224.00
2018-07-17T10:45:52.699Z,20288.00
2018-07-17T10:46:52.691Z,20448.00
2018-07-17T10:47:52.687Z,20832.00
2018-07-17T10:48:52.672Z,20544.00
2018-07-17T10:49:52.679Z,20096.00
2018-07-17T10:50:52.652Z,19392.00
2018-07-17T10:51:52.641Z,18784.00
2018-07-17T10:52:52.633Z,18080.00
2018-07-17T10:53:52.624Z,17184.00
2018-07-17T10:54:52.616Z,16276.00
2018-07-17T10:55:52.619Z,15444.00
2018-07-17T10:56:52.604Z,14520.00
2018-07-17T10:57:52.588Z,13712.00
2018-07-17T10:58:52.580Z,13076.00
2018-07-17T10:59:52.571Z,12756.00
2018-07-17T11:00:52.591Z,12444.00
2018-07-17T11:01:52.557Z,12120.00
2018-07-17T11:02:52.544Z,11812.00
2018-07-17T11:03:52.535Z,11440.00
2018-07-17T11:04:52.525Z,10996.00
2018-07-17T11:05:52.532Z,10632.00
2018-07-17T11:06:52.512Z,10828.00
2018-07-17T11:07:52.498Z,10892.00
2018-07-17T11:08:52.489Z,10564.00
2018-07-17T11:09:52.478Z,10608.00
2018-07-17T11:10:52.470Z,10684.00
2018-07-17T11:11:52.476Z,10696.00
2018-07-17T11:12:52.450Z,10696.00
2018-07-17T11:13:52.442Z,10668.00
2018-07-17T11:14:52.435Z,10548.00
2018-07-17T11:15:52.426Z,10492.00
2018-07-17T11:16:52.427Z,10508.00
2018-07-17T11:17:52.408Z,10640.00
2018-07-17T11:18:52.397Z,10712.00
2018-07-17T11:19:52.389Z,10648.00
2018-07-17T11:20:52.381Z,10552.00
2018-07-17T11:21:52.380Z,10448.00
2018-07-17T11:22:52.361Z,10388.00
2018-07-17T11:23:52.351Z,10392.00
2018-07-17T11:24:52.343Z,10416.00
2018-07-17T11:25:52.334Z,10436.00
2018-07-17T11:26:52.348Z,10484.00
2018-07-17T11:27:52.316Z,10596.00
2018-07-17T11:28:52.307Z,10724.00
2018-07-17T11:29:52.298Z,10768.00
2018-07-17T11:30:52.289Z,10732.00
2018-07-17T11:31:52.311Z,10656.00
2018-07-17T11:32:52.286Z,10688.00
2018-07-17T11:33:52.265Z,10812.00
2018-07-17T11:34:52.253Z,11000.00
2018-07-17T11:35:52.244Z,11124.00
2018-07-17T11:36:52.235Z,11504.00
2018-07-17T11:37:52.240Z,11960.00
2018-07-17T11:38:52.220Z,12516.00
2018-07-17T11:39:52.208Z,13032.00
2018-07-17T11:40:52.199Z,12928.00
2018-07-17T11:41:52.191Z,13372.00
2018-07-17T11:42:52.204Z,13780.00
2018-07-17T11:43:52.175Z,14872.00
2018-07-17T11:44:52.165Z,15688.00
2018-07-17T11:45:52.158Z,16324.00
2018-07-17T11:46:52.151Z,17120.00
2018-07-17T11:47:52.148Z,17856.00
2018-07-17T11:48:52.138Z,17760.00
2018-07-17T11:49:52.140Z,17600.00
2018-07-17T11:50:52.111Z,17152.00
2018-07-17T11:51:52.102Z,16928.00
2018-07-17T11:52:52.094Z,16612.00
2018-07-17T11:53:52.097Z,14820.00
2018-07-17T11:54:52.076Z,14864.00
2018-07-17T11:55:52.070Z,15032.00
2018-07-17T11:56:52.059Z,14276.00
2018-07-17T11:57:52.053Z,12800.00
2018-07-17T11:58:52.087Z,11464.00
2018-07-17T11:59:52.033Z,9768.00
2018-07-17T12:00:52.028Z,10040.00
2018-07-17T12:01:52.017Z,10832.00
2018-07-17T12:02:52.012Z,11604.00
2018-07-17T12:03:51.999Z,11536.00
2018-07-17T12:04:52.007Z,11156.00
2018-07-17T12:05:52.086Z,12200.00
2018-07-17T12:06:51.976Z,13316.00
2018-07-17T12:07:51.963Z,13976.00
2018-07-17T12:08:51.955Z,14288.00
2018-07-17T12:09:51.959Z,14772.00
2018-07-17T12:10:51.939Z,15476.00
2018-07-17T12:11:51.929Z,16244.00
2018-07-17T12:12:52.027Z,16960.00
2018-07-17T12:13:51.911Z,17408.00
2018-07-17T12:14:51.927Z,16928.00
2018-07-17T12:15:51.897Z,16140.00
2018-07-17T12:16:51.886Z,15988.00
2018-07-17T12:17:51.876Z,15808.00
2018-07-17T12:18:51.867Z,15668.00